sensor_id;sensor_type;location;lat;lon;timestamp;pressure;altitude;pressure_sealevel;temperature;humidity
71638;BME280;59485;43.542;-5.676;2023-04-25T00:01:22;101570.91;;;16.40;100.00
71638;BME280;59485;43.542;-5.676;2023-04-25T00:03:48;101548.50;;;16.22;100.00
71638;BME280;59485;43.542;-5.676;2023-04-25T00:06:14;101557.66;;;16.29;100.00
71638;BME280;59485;43.542;-5.676;2023-04-25T00:08:43;101551.72;;;16.19;100.00
71638;BME280;59485;43.542;-5.676;2023-04-25T00:11:09;101564.69;;;16.25;100.00
71638;BME280;59485;43.542;-5.676;2023-04-25T00:13:35;101573.00;;;16.31;100.00
71638;BME280;59485;43.542;-5.676;2023-04-25T00:16:00;101505.69;;;15.98;100.00
71638;BME280;59485;43.542;-5.676;2023-04-25T00:18:27;101549.56;;;16.21;100.00
71638;BME280;59485;43.542;-5.676;2023-04-25T00:20:58;101552.56;;;16.26;100.00
71638;BME280;59485;43.542;-5.676;2023-04-25T00:23:23;101544.47;;;16.24;100.00
71638;BME280;59485;43.542;-5.676;2023-04-25T00:25:50;101561.94;;;16.38;100.00
71638;BME280;59485;43.542;-5.676;2023-04-25T00:28:16;101532.56;;;16.30;100.00
71638;BME280;59485;43.542;-5.676;2023-04-25T00:30:42;101544.28;;;16.39;100.00
71638;BME280;59485;43.542;-5.676;2023-04-25T00:33:08;101549.63;;;16.40;100.00
71638;BME280;59485;43.542;-5.676;2023-04-25T00:35:34;101548.56;;;16.41;100.00
71638;BME280;59485;43.542;-5.676;2023-04-25T00:37:59;101519.81;;;16.36;100.00
71638;BME280;59485;43.542;-5.676;2023-04-25T00:40:25;101537.28;;;16.43;100.00
71638;BME280;59485;43.542;-5.676;2023-04-25T00:42:52;101540.91;;;16.50;100.00
71638;BME280;59485;43.542;-5.676;2023-04-25T00:45:18;101523.66;;;16.41;100.00
71638;BME280;59485;43.542;-5.676;2023-04-25T00:47:46;101530.25;;;16.47;100.00
71638;BME280;59485;43.542;-5.676;2023-04-25T00:50:13;101511.09;;;16.39;100.00
71638;BME280;59485;43.542;-5.676;2023-04-25T00:52:41;101517.91;;;16.43;100.00
71638;BME280;59485;43.542;-5.676;2023-04-25T00:55:08;101511.72;;;16.41;100.00
71638;BME280;59485;43.542;-5.676;2023-04-25T00:57:34;101526.66;;;16.53;100.00
71638;BME280;59485;43.542;-5.676;2023-04-25T01:00:00;101513.44;;;16.48;100.00
71638;BME280;59485;43.542;-5.676;2023-04-25T01:02:26;101499.16;;;16.38;100.00
71638;BME280;59485;43.542;-5.676;2023-04-25T01:04:52;101516.66;;;16.45;100.00
71638;BME280;59485;43.542;-5.676;2023-04-25T01:07:18;101515.78;;;16.45;100.00
71638;BME280;59485;43.542;-5.676;2023-04-25T01:09:46;101496.81;;;16.29;100.00
71638;BME280;59485;43.542;-5.676;2023-04-25T01:12:11;101499.41;;;16.37;100.00
71638;BME280;59485;43.542;-5.676;2023-04-25T01:14:37;101480.44;;;16.34;100.00
71638;BME280;59485;43.542;-5.676;2023-04-25T01:17:03;101495.13;;;16.41;100.00
71638;BME280;59485;43.542;-5.676;2023-04-25T01:19:29;101493.63;;;16.38;100.00
71638;BME280;59485;43.542;-5.676;2023-04-25T01:21:55;101495.34;;;16.39;100.00
71638;BME280;59485;43.542;-5.676;2023-04-25T01:24:20;101498.34;;;16.44;100.00
71638;BME280;59485;43.542;-5.676;2023-04-25T01:26:46;101506.00;;;16.49;100.00
71638;BME280;59485;43.542;-5.676;2023-04-25T01:29:18;101497.47;;;16.44;100.00
71638;BME280;59485;43.542;-5.676;2023-04-25T01:31:44;101493.00;;;16.43;100.00
71638;BME280;59485;43.542;-5.676;2023-04-25T01:34:11;101466.81;;;16.26;100.00
71638;BME280;59485;43.542;-5.676;2023-04-25T01:36:37;101475.09;;;16.32;100.00
71638;BME280;59485;43.542;-5.676;2023-04-25T01:39:02;101480.84;;;16.31;100.00
71638;BME280;59485;43.542;-5.676;2023-04-25T01:41:28;101473.41;;;16.31;100.00
71638;BME280;59485;43.542;-5.676;2023-04-25T01:43:54;101454.44;;;16.22;100.00
71638;BME280;59485;43.542;-5.676;2023-04-25T01:46:20;101471.91;;;16.29;100.00
71638;BME280;59485;43.542;-5.676;2023-04-25T01:48:46;101483.19;;;16.34;100.00
71638;BME280;59485;43.542;-5.676;2023-04-25T01:51:12;101469.13;;;16.29;100.00
71638;BME280;59485;43.542;-5.676;2023-04-25T01:53:39;101472.13;;;16.27;100.00
71638;BME280;59485;43.542;-5.676;2023-04-25T01:56:05;101473.19;;;16.33;100.00
71638;BME280;59485;43.542;-5.676;2023-04-25T01:58:30;101456.38;;;16.28;100.00
71638;BME280;59485;43.542;-5.676;2023-04-25T02:00:56;101476.16;;;16.31;100.00
71638;BME280;59485;43.542;-5.676;2023-04-25T02:03:22;101481.28;;;16.34;100.00
71638;BME280;59485;43.542;-5.676;2023-04-25T02:05:47;101464.69;;;16.28;100.00
71638;BME280;59485;43.542;-5.676;2023-04-25T02:08:13;101474.25;;;16.32;100.00
71638;BME280;59485;43.542;-5.676;2023-04-25T02:10:39;101484.69;;;16.30;100.00
71638;BME280;59485;43.542;-5.676;2023-04-25T02:13:04;101476.78;;;16.20;100.00
71638;BME280;59485;43.542;-5.676;2023-04-25T02:15:30;101456.81;;;16.18;100.00
71638;BME280;59485;43.542;-5.676;2023-04-25T02:17:56;101453.38;;;16.16;100.00
71638;BME280;59485;43.542;-5.676;2023-04-25T02:20:22;101462.78;;;16.28;100.00
71638;BME280;59485;43.542;-5.676;2023-04-25T02:22:48;101454.25;;;16.23;100.00
71638;BME280;59485;43.542;-5.676;2023-04-25T02:25:14;101470.22;;;16.28;100.00
71638;BME280;59485;43.542;-5.676;2023-04-25T02:27:41;101440.16;;;16.11;100.00
71638;BME280;59485;43.542;-5.676;2023-04-25T02:30:07;101435.69;;;16.10;100.00
71638;BME280;59485;43.542;-5.676;2023-04-25T02:32:33;101439.09;;;16.12;100.00
71638;BME280;59485;43.542;-5.676;2023-04-25T02:35:02;101464.44;;;16.23;100.00
71638;BME280;59485;43.542;-5.676;2023-04-25T02:37:35;101473.00;;;16.28;100.00
71638;BME280;59485;43.542;-5.676;2023-04-25T02:40:01;101470.00;;;16.23;100.00
71638;BME280;59485;43.542;-5.676;2023-04-25T02:42:27;101468.31;;;16.28;100.00
71638;BME280;59485;43.542;-5.676;2023-04-25T02:44:52;101445.28;;;16.21;100.00
71638;BME280;59485;43.542;-5.676;2023-04-25T02:47:18;101464.44;;;16.29;100.00
71638;BME280;59485;43.542;-5.676;2023-04-25T02:49:44;101455.09;;;16.30;100.00
71638;BME280;59485;43.542;-5.676;2023-04-25T02:52:10;101461.03;;;16.21;100.00
71638;BME280;59485;43.542;-5.676;2023-04-25T02:54:36;101456.78;;;16.11;100.00
71638;BME280;59485;43.542;-5.676;2023-04-25T02:57:01;101454.88;;;16.19;100.00
71638;BME280;59485;43.542;-5.676;2023-04-25T02:59:28;101448.72;;;16.10;100.00
71638;BME280;59485;43.542;-5.676;2023-04-25T03:01:53;101436.75;;;16.03;100.00
71638;BME280;59485;43.542;-5.676;2023-04-25T03:04:20;101457.41;;;16.07;100.00
71638;BME280;59485;43.542;-5.676;2023-04-25T03:06:46;101430.38;;;15.96;100.00
71638;BME280;59485;43.542;-5.676;2023-04-25T03:09:12;101419.06;;;15.84;100.00
71638;BME280;59485;43.542;-5.676;2023-04-25T03:11:40;101432.28;;;15.95;100.00
71638;BME280;59485;43.542;-5.676;2023-04-25T03:14:05;101435.03;;;15.89;100.00
71638;BME280;59485;43.542;-5.676;2023-04-25T03:16:31;101439.31;;;16.04;100.00
71638;BME280;59485;43.542;-5.676;2023-04-25T03:18:57;101427.00;;;16.00;100.00
71638;BME280;59485;43.542;-5.676;2023-04-25T03:23:58;101418.69;;;16.00;100.00
71638;BME280;59485;43.542;-5.676;2023-04-25T03:29:02;101366.72;;;15.76;100.00
71638;BME280;59485;43.542;-5.676;2023-04-25T03:33:57;101416.97;;;16.12;100.00
71638;BME280;59485;43.542;-5.676;2023-04-25T03:36:23;101399.75;;;15.97;100.00
71638;BME280;59485;43.542;-5.676;2023-04-25T03:38:48;101404.00;;;16.06;100.00
71638;BME280;59485;43.542;-5.676;2023-04-25T03:41:14;101412.31;;;16.13;100.00
71638;BME280;59485;43.542;-5.676;2023-04-25T03:43:39;101427.00;;;16.13;100.00
71638;BME280;59485;43.542;-5.676;2023-04-25T03:46:05;101401.03;;;16.01;100.00
71638;BME280;59485;43.542;-5.676;2023-04-25T03:48:33;101355.47;;;15.77;100.00
71638;BME280;59485;43.542;-5.676;2023-04-25T03:51:08;101355.47;;;15.84;100.00
71638;BME280;59485;43.542;-5.676;2023-04-25T03:53:33;101438.69;;;16.22;100.00
71638;BME280;59485;43.542;-5.676;2023-04-25T03:56:11;101389.09;;;15.94;100.00
71638;BME280;59485;43.542;-5.676;2023-04-25T03:58:37;101384.00;;;15.98;100.00
71638;BME280;59485;43.542;-5.676;2023-04-25T04:01:02;101395.06;;;15.91;100.00
71638;BME280;59485;43.542;-5.676;2023-04-25T04:03:38;101402.72;;;15.89;100.00
71638;BME280;59485;43.542;-5.676;2023-04-25T04:06:07;101386.31;;;15.81;100.00
71638;BME280;59485;43.542;-5.676;2023-04-25T04:08:46;101403.53;;;15.76;100.00
71638;BME280;59485;43.542;-5.676;2023-04-25T04:11:12;101431.88;;;15.92;100.00
71638;BME280;59485;43.542;-5.676;2023-04-25T04:13:43;101397.97;;;15.70;100.00
71638;BME280;59485;43.542;-5.676;2023-04-25T04:16:12;101414.78;;;15.75;100.00
71638;BME280;59485;43.542;-5.676;2023-04-25T04:18:37;101419.25;;;15.76;100.00
71638;BME280;59485;43.542;-5.676;2023-04-25T04:21:12;101401.81;;;15.69;100.00
71638;BME280;59485;43.542;-5.676;2023-04-25T04:26:06;101435.03;;;15.82;100.00
71638;BME280;59485;43.542;-5.676;2023-04-25T04:28:36;101409.03;;;15.70;100.00
71638;BME280;59485;43.542;-5.676;2023-04-25T04:31:18;101388.19;;;15.61;100.00
71638;BME280;59485;43.542;-5.676;2023-04-25T04:33:50;101409.44;;;15.67;100.00
71638;BME280;59485;43.542;-5.676;2023-04-25T04:39:05;101426.50;;;15.77;100.00
71638;BME280;59485;43.542;-5.676;2023-04-25T04:41:31;101394.34;;;15.56;100.00
71638;BME280;59485;43.542;-5.676;2023-04-25T04:43:57;101424.78;;;15.76;100.00
71638;BME280;59485;43.542;-5.676;2023-04-25T04:48:57;101388.34;;;15.53;100.00
71638;BME280;59485;43.542;-5.676;2023-04-25T04:51:23;101400.94;;;15.62;100.00
71638;BME280;59485;43.542;-5.676;2023-04-25T04:53:49;101423.06;;;15.75;100.00
71638;BME280;59485;43.542;-5.676;2023-04-25T04:56:24;101377.50;;;15.51;100.00
71638;BME280;59485;43.542;-5.676;2023-04-25T04:58:51;101408.59;;;15.66;100.00
71638;BME280;59485;43.542;-5.676;2023-04-25T05:01:24;101427.78;;;15.81;100.00
71638;BME280;59485;43.542;-5.676;2023-04-25T05:03:50;101377.13;;;15.54;100.00
71638;BME280;59485;43.542;-5.676;2023-04-25T05:06:28;101441.22;;;15.91;100.00
71638;BME280;59485;43.542;-5.676;2023-04-25T05:08:59;101435.44;;;15.86;100.00
71638;BME280;59485;43.542;-5.676;2023-04-25T05:11:25;101438.00;;;15.87;100.00
71638;BME280;59485;43.542;-5.676;2023-04-25T05:13:53;101425.69;;;15.83;100.00
71638;BME280;59485;43.542;-5.676;2023-04-25T05:16:22;101419.69;;;15.80;100.00
71638;BME280;59485;43.542;-5.676;2023-04-25T05:18:48;101419.69;;;15.73;100.00
71638;BME280;59485;43.542;-5.676;2023-04-25T05:21:14;101425.03;;;15.81;100.00
71638;BME280;59485;43.542;-5.676;2023-04-25T05:23:39;101442.47;;;15.88;100.00
71638;BME280;59485;43.542;-5.676;2023-04-25T05:26:05;101448.22;;;15.93;100.00
71638;BME280;59485;43.542;-5.676;2023-04-25T05:28:30;101445.44;;;15.93;100.00
71638;BME280;59485;43.542;-5.676;2023-04-25T05:30:56;101426.72;;;15.82;100.00
71638;BME280;59485;43.542;-5.676;2023-04-25T05:33:21;101425.25;;;15.86;100.00
71638;BME280;59485;43.542;-5.676;2023-04-25T05:35:47;101459.53;;;16.05;100.00
71638;BME280;59485;43.542;-5.676;2023-04-25T05:38:12;101453.16;;;16.04;100.00
71638;BME280;59485;43.542;-5.676;2023-04-25T05:40:38;101445.91;;;16.03;100.00
71638;BME280;59485;43.542;-5.676;2023-04-25T05:43:04;101434.41;;;15.93;100.00
71638;BME280;59485;43.542;-5.676;2023-04-25T05:45:29;101448.06;;;16.01;100.00
71638;BME280;59485;43.542;-5.676;2023-04-25T05:47:55;101459.13;;;16.01;100.00
71638;BME280;59485;43.542;-5.676;2023-04-25T05:50:20;101464.00;;;16.06;100.00
71638;BME280;59485;43.542;-5.676;2023-04-25T05:52:46;101445.91;;;15.97;100.00
71638;BME280;59485;43.542;-5.676;2023-04-25T05:55:11;101434.41;;;15.93;100.00
71638;BME280;59485;43.542;-5.676;2023-04-25T05:57:37;101445.91;;;15.97;100.00
71638;BME280;59485;43.542;-5.676;2023-04-25T06:00:07;101438.44;;;15.91;100.00
71638;BME280;59485;43.542;-5.676;2023-04-25T06:02:34;101435.91;;;15.96;100.00
71638;BME280;59485;43.542;-5.676;2023-04-25T06:05:00;101443.59;;;16.00;100.00
71638;BME280;59485;43.542;-5.676;2023-04-25T06:07:28;101437.59;;;16.03;100.00
71638;BME280;59485;43.542;-5.676;2023-04-25T06:09:55;101439.31;;;16.11;100.00
71638;BME280;59485;43.542;-5.676;2023-04-25T06:12:20;101421.88;;;16.04;100.00
71638;BME280;59485;43.542;-5.676;2023-04-25T06:14:46;101438.28;;;16.19;100.00
71638;BME280;59485;43.542;-5.676;2023-04-25T06:17:11;101429.34;;;16.17;100.00
71638;BME280;59485;43.542;-5.676;2023-04-25T06:19:37;101427.84;;;16.21;100.00
71638;BME280;59485;43.542;-5.676;2023-04-25T06:22:02;101431.25;;;16.29;100.00
71638;BME280;59485;43.542;-5.676;2023-04-25T06:24:28;101443.84;;;16.45;100.00
71638;BME280;59485;43.542;-5.676;2023-04-25T06:26:54;101434.03;;;16.42;100.00
71638;BME280;59485;43.542;-5.676;2023-04-25T06:29:20;101420.22;;;16.36;100.00
71638;BME280;59485;43.542;-5.676;2023-04-25T06:31:45;101434.03;;;16.49;100.00
71638;BME280;59485;43.542;-5.676;2023-04-25T06:34:11;101442.78;;;16.52;100.00
71638;BME280;59485;43.542;-5.676;2023-04-25T06:36:36;101456.22;;;16.62;100.00
71638;BME280;59485;43.542;-5.676;2023-04-25T06:39:02;101444.69;;;16.59;100.00
71638;BME280;59485;43.542;-5.676;2023-04-25T06:41:28;101450.69;;;16.62;100.00
71638;BME280;59485;43.542;-5.676;2023-04-25T06:43:53;101447.47;;;16.65;100.00
71638;BME280;59485;43.542;-5.676;2023-04-25T06:46:19;101428.91;;;16.59;100.00
71638;BME280;59485;43.542;-5.676;2023-04-25T06:48:44;101424.47;;;16.51;100.00
71638;BME280;59485;43.542;-5.676;2023-04-25T06:51:10;101441.50;;;16.68;100.00
71638;BME280;59485;43.542;-5.676;2023-04-25T06:53:36;101440.66;;;16.68;100.00
71638;BME280;59485;43.542;-5.676;2023-04-25T06:56:01;101443.41;;;16.74;100.00
71638;BME280;59485;43.542;-5.676;2023-04-25T06:58:28;101424.47;;;16.71;100.00
71638;BME280;59485;43.542;-5.676;2023-04-25T07:00:53;101453.00;;;16.85;100.00
71638;BME280;59485;43.542;-5.676;2023-04-25T07:03:19;101462.97;;;16.93;100.00
71638;BME280;59485;43.542;-5.676;2023-04-25T07:05:44;101464.25;;;17.03;100.00
71638;BME280;59485;43.542;-5.676;2023-04-25T07:08:11;101478.91;;;17.23;100.00
71638;BME280;59485;43.542;-5.676;2023-04-25T07:10:36;101480.41;;;17.26;100.00
71638;BME280;59485;43.542;-5.676;2023-04-25T07:13:02;101462.94;;;17.19;100.00
71638;BME280;59485;43.542;-5.676;2023-04-25T07:15:28;101457.19;;;17.20;100.00
71638;BME280;59485;43.542;-5.676;2023-04-25T07:17:53;101475.44;;;17.48;100.00
71638;BME280;59485;43.542;-5.676;2023-04-25T07:20:19;101472.88;;;17.46;100.00
71638;BME280;59485;43.542;-5.676;2023-04-25T07:22:44;101467.16;;;17.41;100.00
71638;BME280;59485;43.542;-5.676;2023-04-25T07:25:10;101472.03;;;17.39;100.00
71638;BME280;59485;43.542;-5.676;2023-04-25T07:27:36;101473.13;;;17.32;100.00
71638;BME280;59485;43.542;-5.676;2023-04-25T07:30:02;101491.41;;;17.46;100.00
71638;BME280;59485;43.542;-5.676;2023-04-25T07:32:29;101496.31;;;17.50;100.00
71638;BME280;59485;43.542;-5.676;2023-04-25T07:34:55;101509.50;;;17.55;100.00
71638;BME280;59485;43.542;-5.676;2023-04-25T07:37:20;101523.59;;;17.60;100.00
71638;BME280;59485;43.542;-5.676;2023-04-25T07:39:46;101489.06;;;17.49;100.00
71638;BME280;59485;43.542;-5.676;2023-04-25T07:42:12;101506.09;;;17.66;100.00
71638;BME280;59485;43.542;-5.676;2023-04-25T07:44:37;101520.59;;;17.61;100.00
71638;BME280;59485;43.542;-5.676;2023-04-25T07:47:07;101525.50;;;17.66;100.00
71638;BME280;59485;43.542;-5.676;2023-04-25T07:49:37;101498.22;;;17.63;100.00
71638;BME280;59485;43.542;-5.676;2023-04-25T07:52:03;101510.13;;;17.77;100.00
71638;BME280;59485;43.542;-5.676;2023-04-25T07:54:30;101511.56;;;17.86;100.00
71638;BME280;59485;43.542;-5.676;2023-04-25T07:56:56;101520.28;;;17.96;100.00
71638;BME280;59485;43.542;-5.676;2023-04-25T07:59:21;101529.63;;;18.02;100.00
71638;BME280;59485;43.542;-5.676;2023-04-25T08:01:47;101530.44;;;18.09;100.00
71638;BME280;59485;43.542;-5.676;2023-04-25T08:04:13;101508.28;;;18.02;100.00
71638;BME280;59485;43.542;-5.676;2023-04-25T08:06:38;101516.56;;;18.09;100.00
71638;BME280;59485;43.542;-5.676;2023-04-25T08:09:05;101500.97;;;18.14;100.00
71638;BME280;59485;43.542;-5.676;2023-04-25T08:11:31;101504.38;;;18.16;100.00
71638;BME280;59485;43.542;-5.676;2023-04-25T08:13:56;101515.81;;;18.33;100.00
71638;BME280;59485;43.542;-5.676;2023-04-25T08:16:22;101511.91;;;18.41;100.00
71638;BME280;59485;43.542;-5.676;2023-04-25T08:18:48;101509.75;;;18.43;100.00
71638;BME280;59485;43.542;-5.676;2023-04-25T08:21:14;101520.19;;;18.47;100.00
71638;BME280;59485;43.542;-5.676;2023-04-25T08:23:40;101497.81;;;18.35;100.00
71638;BME280;59485;43.542;-5.676;2023-04-25T08:26:06;101488.25;;;18.31;100.00
71638;BME280;59485;43.542;-5.676;2023-04-25T08:28:32;101495.03;;;18.42;100.00
71638;BME280;59485;43.542;-5.676;2023-04-25T08:30:57;101496.25;;;18.46;100.00
71638;BME280;59485;43.542;-5.676;2023-04-25T08:33:23;101486.19;;;18.52;100.00
71638;BME280;59485;43.542;-5.676;2023-04-25T08:35:48;101517.09;;;18.62;100.00
71638;BME280;59485;43.542;-5.676;2023-04-25T08:38:14;101517.06;;;18.68;100.00
71638;BME280;59485;43.542;-5.676;2023-04-25T08:40:40;101505.78;;;18.63;100.00
71638;BME280;59485;43.542;-5.676;2023-04-25T08:43:07;101511.91;;;18.72;100.00
71638;BME280;59485;43.542;-5.676;2023-04-25T08:45:40;101505.06;;;18.74;100.00
71638;BME280;59485;43.542;-5.676;2023-04-25T08:48:10;101483.81;;;18.55;100.00
71638;BME280;59485;43.542;-5.676;2023-04-25T08:50:39;101481.63;;;18.64;100.00
71638;BME280;59485;43.542;-5.676;2023-04-25T08:53:08;101503.13;;;18.75;100.00
71638;BME280;59485;43.542;-5.676;2023-04-25T08:55:37;101479.34;;;18.79;100.00
71638;BME280;59485;43.542;-5.676;2023-04-25T08:58:04;101477.91;;;18.77;100.00
71638;BME280;59485;43.542;-5.676;2023-04-25T09:00:30;101472.28;;;18.83;100.00
71638;BME280;59485;43.542;-5.676;2023-04-25T09:02:57;101495.47;;;18.95;100.00
71638;BME280;59485;43.542;-5.676;2023-04-25T09:05:24;101492.06;;;18.93;100.00
71638;BME280;59485;43.542;-5.676;2023-04-25T09:07:50;101500.19;;;18.95;100.00
71638;BME280;59485;43.542;-5.676;2023-04-25T09:10:15;101485.44;;;18.69;100.00
71638;BME280;59485;43.542;-5.676;2023-04-25T09:12:40;101489.94;;;18.89;100.00
71638;BME280;59485;43.542;-5.676;2023-04-25T09:15:09;101508.75;;;18.93;100.00
71638;BME280;59485;43.542;-5.676;2023-04-25T09:17:35;101478.91;;;18.82;100.00
71638;BME280;59485;43.542;-5.676;2023-04-25T09:20:14;101492.91;;;18.94;100.00
71638;BME280;59485;43.542;-5.676;2023-04-25T09:22:40;101499.56;;;18.93;100.00
71638;BME280;59485;43.542;-5.676;2023-04-25T09:25:10;101493.78;;;18.94;100.00
71638;BME280;59485;43.542;-5.676;2023-04-25T09:27:36;101491.63;;;18.96;100.00
71638;BME280;59485;43.542;-5.676;2023-04-25T09:30:05;101494.63;;;18.95;100.00
71638;BME280;59485;43.542;-5.676;2023-04-25T09:32:31;101492.44;;;18.97;100.00
71638;BME280;59485;43.542;-5.676;2023-04-25T09:34:57;101464.25;;;18.75;100.00
71638;BME280;59485;43.542;-5.676;2023-04-25T09:37:28;101481.56;;;18.70;100.00
71638;BME280;59485;43.542;-5.676;2023-04-25T09:39:56;101474.38;;;18.63;100.00
71638;BME280;59485;43.542;-5.676;2023-04-25T09:42:23;101474.50;;;18.74;100.00
71638;BME280;59485;43.542;-5.676;2023-04-25T09:44:52;101488.03;;;18.89;100.00
71638;BME280;59485;43.542;-5.676;2023-04-25T09:47:18;101486.66;;;18.98;100.00
71638;BME280;59485;43.542;-5.676;2023-04-25T09:49:46;101467.28;;;18.92;100.00
71638;BME280;59485;43.542;-5.676;2023-04-25T09:52:20;101483.84;;;18.80;100.00
71638;BME280;59485;43.542;-5.676;2023-04-25T09:54:48;101492.50;;;18.90;100.00
71638;BME280;59485;43.542;-5.676;2023-04-25T09:57:19;101488.78;;;18.78;100.00
71638;BME280;59485;43.542;-5.676;2023-04-25T09:59:50;101485.81;;;18.73;100.00
71638;BME280;59485;43.542;-5.676;2023-04-25T10:02:18;101496.00;;;18.54;100.00
71638;BME280;59485;43.542;-5.676;2023-04-25T10:04:50;101491.56;;;18.78;100.00
71638;BME280;59485;43.542;-5.676;2023-04-25T10:07:19;101501.56;;;18.79;100.00
71638;BME280;59485;43.542;-5.676;2023-04-25T10:09:53;101506.25;;;18.85;100.00
71638;BME280;59485;43.542;-5.676;2023-04-25T10:12:20;101508.28;;;18.71;100.00
71638;BME280;59485;43.542;-5.676;2023-04-25T10:14:47;101503.69;;;18.84;100.00
71638;BME280;59485;43.542;-5.676;2023-04-25T10:17:13;101502.06;;;18.76;100.00
71638;BME280;59485;43.542;-5.676;2023-04-25T10:19:39;101487.47;;;18.81;100.00
71638;BME280;59485;43.542;-5.676;2023-04-25T10:22:13;101492.22;;;18.73;100.00
71638;BME280;59485;43.542;-5.676;2023-04-25T10:24:40;101494.78;;;19.00;100.00
71638;BME280;59485;43.542;-5.676;2023-04-25T10:27:07;101490.78;;;18.96;100.00
71638;BME280;59485;43.542;-5.676;2023-04-25T10:29:32;101456.63;;;18.89;100.00
71638;BME280;59485;43.542;-5.676;2023-04-25T10:31:58;101486.88;;;19.22;100.00
71638;BME280;59485;43.542;-5.676;2023-04-25T10:34:37;101481.31;;;19.22;100.00
71638;BME280;59485;43.542;-5.676;2023-04-25T10:37:04;101462.59;;;19.10;100.00
71638;BME280;59485;43.542;-5.676;2023-04-25T10:39:29;101469.00;;;19.11;100.00
71638;BME280;59485;43.542;-5.676;2023-04-25T10:41:57;101480.81;;;19.25;100.00
71638;BME280;59485;43.542;-5.676;2023-04-25T10:44:26;101474.28;;;19.19;100.00
71638;BME280;59485;43.542;-5.676;2023-04-25T10:46:52;101443.28;;;19.16;100.00
71638;BME280;59485;43.542;-5.676;2023-04-25T10:49:43;101455.06;;;19.54;100.00
71638;BME280;59485;43.542;-5.676;2023-04-25T10:52:25;101457.06;;;19.65;100.00
71638;BME280;59485;43.542;-5.676;2023-04-25T10:54:53;101450.06;;;19.93;100.00
71638;BME280;59485;43.542;-5.676;2023-04-25T10:57:41;101461.03;;;19.88;100.00
71638;BME280;59485;43.542;-5.676;2023-04-25T11:00:14;101468.97;;;19.72;100.00
71638;BME280;59485;43.542;-5.676;2023-04-25T11:02:45;101464.78;;;19.81;100.00
71638;BME280;59485;43.542;-5.676;2023-04-25T11:05:34;101464.91;;;19.86;100.00
71638;BME280;59485;43.542;-5.676;2023-04-25T11:08:00;101468.47;;;19.94;100.00
71638;BME280;59485;43.542;-5.676;2023-04-25T11:10:27;101469.94;;;19.78;100.00
71638;BME280;59485;43.542;-5.676;2023-04-25T11:12:53;101462.75;;;19.89;100.00
71638;BME280;59485;43.542;-5.676;2023-04-25T11:15:18;101449.63;;;19.77;100.00
71638;BME280;59485;43.542;-5.676;2023-04-25T11:17:44;101453.75;;;19.75;100.00
71638;BME280;59485;43.542;-5.676;2023-04-25T11:20:12;101460.19;;;19.57;100.00
71638;BME280;59485;43.542;-5.676;2023-04-25T11:22:39;101474.94;;;19.58;100.00
71638;BME280;59485;43.542;-5.676;2023-04-25T11:25:10;101474.91;;;19.21;100.00
71638;BME280;59485;43.542;-5.676;2023-04-25T11:30:16;101448.19;;;18.77;100.00
71638;BME280;59485;43.542;-5.676;2023-04-25T11:32:42;101477.59;;;19.28;100.00
71638;BME280;59485;43.542;-5.676;2023-04-25T11:35:10;101459.44;;;19.43;100.00
71638;BME280;59485;43.542;-5.676;2023-04-25T11:37:39;101475.91;;;19.45;100.00
71638;BME280;59485;43.542;-5.676;2023-04-25T11:40:05;101471.41;;;19.44;100.00
71638;BME280;59485;43.542;-5.676;2023-04-25T11:42:43;101456.13;;;19.35;100.00
71638;BME280;59485;43.542;-5.676;2023-04-25T11:45:08;101450.09;;;19.01;100.00
71638;BME280;59485;43.542;-5.676;2023-04-25T11:47:35;101479.13;;;19.24;100.00
71638;BME280;59485;43.542;-5.676;2023-04-25T11:50:02;101470.53;;;19.07;100.00
71638;BME280;59485;43.542;-5.676;2023-04-25T11:52:45;101439.66;;;18.79;100.00
71638;BME280;59485;43.542;-5.676;2023-04-25T11:57:41;101469.53;;;19.01;100.00
71638;BME280;59485;43.542;-5.676;2023-04-25T12:00:18;101460.50;;;19.06;100.00
71638;BME280;59485;43.542;-5.676;2023-04-25T12:02:47;101472.19;;;19.33;100.00
71638;BME280;59485;43.542;-5.676;2023-04-25T12:05:15;101445.53;;;19.25;100.00
71638;BME280;59485;43.542;-5.676;2023-04-25T12:07:41;101468.31;;;19.34;100.00
71638;BME280;59485;43.542;-5.676;2023-04-25T12:10:09;101471.50;;;19.37;100.00
71638;BME280;59485;43.542;-5.676;2023-04-25T12:15:24;101458.13;;;19.82;100.00
71638;BME280;59485;43.542;-5.676;2023-04-25T12:17:53;101446.84;;;20.07;100.00
71638;BME280;59485;43.542;-5.676;2023-04-25T12:20:24;101445.47;;;20.28;100.00
71638;BME280;59485;43.542;-5.676;2023-04-25T12:25:39;101448.72;;;19.83;100.00
71638;BME280;59485;43.542;-5.676;2023-04-25T12:28:20;101429.13;;;19.90;100.00
71638;BME280;59485;43.542;-5.676;2023-04-25T12:31:04;101443.19;;;19.95;100.00
71638;BME280;59485;43.542;-5.676;2023-04-25T12:33:32;101426.16;;;19.73;100.00
71638;BME280;59485;43.542;-5.676;2023-04-25T12:35:59;101447.00;;;19.82;100.00
71638;BME280;59485;43.542;-5.676;2023-04-25T12:38:30;101430.63;;;19.74;100.00
71638;BME280;59485;43.542;-5.676;2023-04-25T12:40:57;101431.59;;;19.68;100.00
71638;BME280;59485;43.542;-5.676;2023-04-25T12:43:23;101416.91;;;19.61;100.00
71638;BME280;59485;43.542;-5.676;2023-04-25T12:45:50;101418.97;;;19.96;100.00
71638;BME280;59485;43.542;-5.676;2023-04-25T12:48:17;101418.16;;;19.95;100.00
71638;BME280;59485;43.542;-5.676;2023-04-25T12:50:42;101409.81;;;20.07;100.00
71638;BME280;59485;43.542;-5.676;2023-04-25T12:53:09;101417.31;;;19.95;100.00
71638;BME280;59485;43.542;-5.676;2023-04-25T12:55:34;101424.34;;;20.09;100.00
71638;BME280;59485;43.542;-5.676;2023-04-25T12:58:00;101417.69;;;20.10;100.00